sensor_id;sensor_type;location;lat;lon;timestamp;P1;durP1;ratioP1;P2;durP2;ratioP2
10872;SDS011;34586;53.616;10.032;2022-08-21T00:01:03;6.07;;;4.27;;
10872;SDS011;34586;53.616;10.032;2022-08-21T00:03:31;10.67;;;8.70;;
10872;SDS011;34586;53.616;10.032;2022-08-21T00:05:57;11.77;;;6.93;;
10872;SDS011;34586;53.616;10.032;2022-08-21T00:08:23;6.93;;;4.10;;
10872;SDS011;34586;53.616;10.032;2022-08-21T00:10:49;5.23;;;3.00;;
10872;SDS011;34586;53.616;10.032;2022-08-21T00:13:15;5.07;;;2.93;;
10872;SDS011;34586;53.616;10.032;2022-08-21T00:15:41;9.00;;;3.47;;
10872;SDS011;34586;53.616;10.032;2022-08-21T00:18:07;7.07;;;2.97;;
10872;SDS011;34586;53.616;10.032;2022-08-21T00:20:35;8.50;;;2.93;;
10872;SDS011;34586;53.616;10.032;2022-08-21T00:23:02;4.83;;;2.33;;
10872;SDS011;34586;53.616;10.032;2022-08-21T00:25:28;4.63;;;2.40;;
10872;SDS011;34586;53.616;10.032;2022-08-21T00:27:54;4.00;;;2.50;;
10872;SDS011;34586;53.616;10.032;2022-08-21T00:30:22;4.27;;;2.43;;
10872;SDS011;34586;53.616;10.032;2022-08-21T00:32:50;3.90;;;1.97;;
10872;SDS011;34586;53.616;10.032;2022-08-21T00:35:17;3.37;;;2.27;;
10872;SDS011;34586;53.616;10.032;2022-08-21T00:37:47;3.83;;;2.50;;
10872;SDS011;34586;53.616;10.032;2022-08-21T00:40:15;3.73;;;2.23;;
10872;SDS011;34586;53.616;10.032;2022-08-21T00:42:43;3.20;;;2.33;;
10872;SDS011;34586;53.616;10.032;2022-08-21T00:45:09;6.13;;;2.20;;
10872;SDS011;34586;53.616;10.032;2022-08-21T00:47:36;6.70;;;2.20;;
10872;SDS011;34586;53.616;10.032;2022-08-21T00:50:03;4.30;;;2.50;;
10872;SDS011;34586;53.616;10.032;2022-08-21T00:52:31;3.17;;;2.20;;
10872;SDS011;34586;53.616;10.032;2022-08-21T00:54:58;4.40;;;2.40;;
10872;SDS011;34586;53.616;10.032;2022-08-21T00:57:36;5.00;;;2.83;;
10872;SDS011;34586;53.616;10.032;2022-08-21T01:00:07;5.07;;;2.97;;
10872;SDS011;34586;53.616;10.032;2022-08-21T01:02:36;7.57;;;3.13;;
10872;SDS011;34586;53.616;10.032;2022-08-21T01:05:02;6.77;;;2.83;;
10872;SDS011;34586;53.616;10.032;2022-08-21T01:07:28;7.17;;;3.40;;
10872;SDS011;34586;53.616;10.032;2022-08-21T01:09:55;5.23;;;3.27;;
10872;SDS011;34586;53.616;10.032;2022-08-21T01:12:20;4.83;;;3.20;;
10872;SDS011;34586;53.616;10.032;2022-08-21T01:14:46;7.60;;;3.60;;
10872;SDS011;34586;53.616;10.032;2022-08-21T01:17:13;5.17;;;3.50;;
10872;SDS011;34586;53.616;10.032;2022-08-21T01:19:40;6.63;;;4.17;;
10872;SDS011;34586;53.616;10.032;2022-08-21T01:22:06;6.20;;;3.77;;
10872;SDS011;34586;53.616;10.032;2022-08-21T01:24:32;4.53;;;3.50;;
10872;SDS011;34586;53.616;10.032;2022-08-21T01:26:58;5.80;;;4.00;;
10872;SDS011;34586;53.616;10.032;2022-08-21T01:32:13;6.20;;;3.90;;
10872;SDS011;34586;53.616;10.032;2022-08-21T01:34:43;7.43;;;4.57;;
10872;SDS011;34586;53.616;10.032;2022-08-21T01:37:10;9.80;;;5.23;;
10872;SDS011;34586;53.616;10.032;2022-08-21T01:39:37;9.90;;;6.20;;
10872;SDS011;34586;53.616;10.032;2022-08-21T01:42:05;12.30;;;7.03;;
10872;SDS011;34586;53.616;10.032;2022-08-21T01:44:31;11.77;;;7.17;;
10872;SDS011;34586;53.616;10.032;2022-08-21T01:46:58;12.43;;;6.97;;
10872;SDS011;34586;53.616;10.032;2022-08-21T01:49:25;10.63;;;5.60;;
10872;SDS011;34586;53.616;10.032;2022-08-21T01:51:51;12.00;;;7.40;;
10872;SDS011;34586;53.616;10.032;2022-08-21T01:54:16;12.23;;;7.50;;
10872;SDS011;34586;53.616;10.032;2022-08-21T01:56:44;18.63;;;8.93;;
10872;SDS011;34586;53.616;10.032;2022-08-21T01:59:12;20.00;;;9.70;;
10872;SDS011;34586;53.616;10.032;2022-08-21T02:01:38;13.07;;;7.63;;
10872;SDS011;34586;53.616;10.032;2022-08-21T02:04:07;8.93;;;5.67;;
10872;SDS011;34586;53.616;10.032;2022-08-21T02:06:34;8.80;;;6.63;;
10872;SDS011;34586;53.616;10.032;2022-08-21T02:09:00;11.17;;;6.90;;
10872;SDS011;34586;53.616;10.032;2022-08-21T02:11:28;9.53;;;6.40;;
10872;SDS011;34586;53.616;10.032;2022-08-21T02:13:53;6.23;;;4.70;;
10872;SDS011;34586;53.616;10.032;2022-08-21T02:16:19;9.20;;;6.33;;
10872;SDS011;34586;53.616;10.032;2022-08-21T02:18:44;10.97;;;5.80;;
10872;SDS011;34586;53.616;10.032;2022-08-21T02:21:11;7.30;;;5.07;;
10872;SDS011;34586;53.616;10.032;2022-08-21T02:23:36;10.20;;;5.63;;
10872;SDS011;34586;53.616;10.032;2022-08-21T02:26:03;9.23;;;5.33;;
10872;SDS011;34586;53.616;10.032;2022-08-21T02:28:31;11.23;;;6.13;;
10872;SDS011;34586;53.616;10.032;2022-08-21T02:30:57;7.63;;;4.97;;
10872;SDS011;34586;53.616;10.032;2022-08-21T02:33:23;7.53;;;5.47;;
10872;SDS011;34586;53.616;10.032;2022-08-21T02:35:49;8.07;;;5.50;;
10872;SDS011;34586;53.616;10.032;2022-08-21T02:38:18;9.10;;;5.47;;
10872;SDS011;34586;53.616;10.032;2022-08-21T02:40:47;8.47;;;5.73;;
10872;SDS011;34586;53.616;10.032;2022-08-21T02:43:15;5.80;;;4.53;;
10872;SDS011;34586;53.616;10.032;2022-08-21T02:45:41;7.33;;;4.90;;
10872;SDS011;34586;53.616;10.032;2022-08-21T02:48:08;6.13;;;4.83;;
10872;SDS011;34586;53.616;10.032;2022-08-21T02:50:37;6.47;;;4.03;;
10872;SDS011;34586;53.616;10.032;2022-08-21T02:53:06;5.50;;;4.30;;
10872;SDS011;34586;53.616;10.032;2022-08-21T02:55:34;7.83;;;5.00;;
10872;SDS011;34586;53.616;10.032;2022-08-21T02:58:02;7.87;;;4.90;;
10872;SDS011;34586;53.616;10.032;2022-08-21T03:00:29;6.63;;;5.93;;
10872;SDS011;34586;53.616;10.032;2022-08-21T03:02:55;10.43;;;5.67;;
10872;SDS011;34586;53.616;10.032;2022-08-21T03:05:22;10.80;;;7.00;;
10872;SDS011;34586;53.616;10.032;2022-08-21T03:07:49;8.00;;;6.37;;
10872;SDS011;34586;53.616;10.032;2022-08-21T03:10:15;7.07;;;5.20;;
10872;SDS011;34586;53.616;10.032;2022-08-21T03:12:41;4.77;;;3.70;;
10872;SDS011;34586;53.616;10.032;2022-08-21T03:15:08;5.90;;;4.33;;
10872;SDS011;34586;53.616;10.032;2022-08-21T03:17:38;7.53;;;5.07;;
10872;SDS011;34586;53.616;10.032;2022-08-21T03:20:04;9.27;;;5.67;;
10872;SDS011;34586;53.616;10.032;2022-08-21T03:22:31;8.57;;;5.57;;
10872;SDS011;34586;53.616;10.032;2022-08-21T03:24:57;7.33;;;4.80;;
10872;SDS011;34586;53.616;10.032;2022-08-21T03:27:24;7.40;;;5.17;;
10872;SDS011;34586;53.616;10.032;2022-08-21T03:29:51;9.30;;;5.70;;
10872;SDS011;34586;53.616;10.032;2022-08-21T03:32:17;6.67;;;5.47;;
10872;SDS011;34586;53.616;10.032;2022-08-21T03:34:44;7.97;;;4.83;;
10872;SDS011;34586;53.616;10.032;2022-08-21T03:37:10;7.27;;;5.30;;
10872;SDS011;34586;53.616;10.032;2022-08-21T03:39:37;8.60;;;6.17;;
10872;SDS011;34586;53.616;10.032;2022-08-21T03:42:03;9.90;;;6.60;;
10872;SDS011;34586;53.616;10.032;2022-08-21T03:44:29;6.37;;;5.13;;
10872;SDS011;34586;53.616;10.032;2022-08-21T03:46:56;10.10;;;6.27;;
10872;SDS011;34586;53.616;10.032;2022-08-21T03:49:22;13.77;;;8.80;;
10872;SDS011;34586;53.616;10.032;2022-08-21T03:51:48;11.03;;;7.30;;
10872;SDS011;34586;53.616;10.032;2022-08-21T03:54:14;12.37;;;7.90;;
10872;SDS011;34586;53.616;10.032;2022-08-21T03:56:40;8.37;;;6.17;;
10872;SDS011;34586;53.616;10.032;2022-08-21T03:59:05;6.57;;;4.90;;
10872;SDS011;34586;53.616;10.032;2022-08-21T04:01:31;4.63;;;3.67;;
10872;SDS011;34586;53.616;10.032;2022-08-21T04:03:57;5.60;;;4.63;;
10872;SDS011;34586;53.616;10.032;2022-08-21T04:06:23;9.23;;;5.40;;
10872;SDS011;34586;53.616;10.032;2022-08-21T04:08:51;5.10;;;4.40;;
10872;SDS011;34586;53.616;10.032;2022-08-21T04:11:17;9.10;;;5.60;;
10872;SDS011;34586;53.616;10.032;2022-08-21T04:13:43;8.00;;;5.10;;
10872;SDS011;34586;53.616;10.032;2022-08-21T04:16:08;7.87;;;4.70;;
10872;SDS011;34586;53.616;10.032;2022-08-21T04:18:34;4.17;;;3.80;;
10872;SDS011;34586;53.616;10.032;2022-08-21T04:21:00;7.10;;;3.83;;
10872;SDS011;34586;53.616;10.032;2022-08-21T04:23:28;8.70;;;4.87;;
10872;SDS011;34586;53.616;10.032;2022-08-21T04:25:54;7.73;;;4.60;;
10872;SDS011;34586;53.616;10.032;2022-08-21T04:28:21;9.33;;;4.93;;
10872;SDS011;34586;53.616;10.032;2022-08-21T04:30:48;12.50;;;5.00;;
10872;SDS011;34586;53.616;10.032;2022-08-21T04:33:15;7.13;;;4.50;;
10872;SDS011;34586;53.616;10.032;2022-08-21T04:35:41;7.50;;;4.70;;
10872;SDS011;34586;53.616;10.032;2022-08-21T04:38:07;8.67;;;4.50;;
10872;SDS011;34586;53.616;10.032;2022-08-21T04:40:33;8.30;;;4.90;;
10872;SDS011;34586;53.616;10.032;2022-08-21T04:43:01;4.73;;;3.60;;
10872;SDS011;34586;53.616;10.032;2022-08-21T04:45:30;7.10;;;4.17;;
10872;SDS011;34586;53.616;10.032;2022-08-21T04:48:03;5.73;;;4.00;;
10872;SDS011;34586;53.616;10.032;2022-08-21T04:51:17;5.50;;;4.10;;
10872;SDS011;34586;53.616;10.032;2022-08-21T04:53:22;3.50;;;3.17;;
10872;SDS011;34586;53.616;10.032;2022-08-21T04:56:03;4.30;;;3.77;;
10872;SDS011;34586;53.616;10.032;2022-08-21T04:58:33;4.97;;;3.77;;
10872;SDS011;34586;53.616;10.032;2022-08-21T05:01:01;5.80;;;4.00;;
10872;SDS011;34586;53.616;10.032;2022-08-21T05:03:29;5.03;;;4.10;;
10872;SDS011;34586;53.616;10.032;2022-08-21T05:05:57;4.43;;;4.03;;
10872;SDS011;34586;53.616;10.032;2022-08-21T05:08:23;6.33;;;3.80;;
10872;SDS011;34586;53.616;10.032;2022-08-21T05:10:52;4.13;;;3.30;;
10872;SDS011;34586;53.616;10.032;2022-08-21T05:13:18;5.27;;;3.83;;
10872;SDS011;34586;53.616;10.032;2022-08-21T05:15:45;5.10;;;3.80;;
10872;SDS011;34586;53.616;10.032;2022-08-21T05:18:10;5.53;;;3.97;;
10872;SDS011;34586;53.616;10.032;2022-08-21T05:20:36;4.90;;;3.50;;
10872;SDS011;34586;53.616;10.032;2022-08-21T05:23:06;4.30;;;3.27;;
10872;SDS011;34586;53.616;10.032;2022-08-21T05:25:37;3.37;;;2.97;;
10872;SDS011;34586;53.616;10.032;2022-08-21T05:28:05;5.30;;;3.47;;
10872;SDS011;34586;53.616;10.032;2022-08-21T05:30:31;7.73;;;3.70;;
10872;SDS011;34586;53.616;10.032;2022-08-21T05:32:58;3.23;;;2.93;;
10872;SDS011;34586;53.616;10.032;2022-08-21T05:35:25;4.23;;;3.30;;
10872;SDS011;34586;53.616;10.032;2022-08-21T05:37:52;5.73;;;3.33;;
10872;SDS011;34586;53.616;10.032;2022-08-21T05:40:18;5.43;;;3.53;;
10872;SDS011;34586;53.616;10.032;2022-08-21T05:42:43;3.93;;;3.00;;
10872;SDS011;34586;53.616;10.032;2022-08-21T05:45:09;4.13;;;2.87;;
10872;SDS011;34586;53.616;10.032;2022-08-21T05:47:35;5.00;;;2.83;;
10872;SDS011;34586;53.616;10.032;2022-08-21T05:50:01;4.60;;;3.07;;
10872;SDS011;34586;53.616;10.032;2022-08-21T05:52:27;3.27;;;2.60;;
10872;SDS011;34586;53.616;10.032;2022-08-21T05:54:52;5.13;;;2.87;;
10872;SDS011;34586;53.616;10.032;2022-08-21T05:57:19;5.13;;;3.03;;
10872;SDS011;34586;53.616;10.032;2022-08-21T05:59:45;4.17;;;3.00;;
10872;SDS011;34586;53.616;10.032;2022-08-21T06:02:11;5.97;;;2.80;;
10872;SDS011;34586;53.616;10.032;2022-08-21T06:04:37;4.10;;;2.40;;
10872;SDS011;34586;53.616;10.032;2022-08-21T06:07:03;4.40;;;2.80;;
10872;SDS011;34586;53.616;10.032;2022-08-21T06:09:29;4.43;;;2.90;;
10872;SDS011;34586;53.616;10.032;2022-08-21T06:11:55;5.57;;;2.50;;
10872;SDS011;34586;53.616;10.032;2022-08-21T06:14:20;4.47;;;2.63;;
10872;SDS011;34586;53.616;10.032;2022-08-21T06:16:46;3.60;;;2.50;;
10872;SDS011;34586;53.616;10.032;2022-08-21T06:19:12;6.27;;;2.63;;
10872;SDS011;34586;53.616;10.032;2022-08-21T06:21:37;5.43;;;2.30;;
10872;SDS011;34586;53.616;10.032;2022-08-21T06:24:03;3.37;;;2.00;;
10872;SDS011;34586;53.616;10.032;2022-08-21T06:26:29;4.77;;;1.70;;
10872;SDS011;34586;53.616;10.032;2022-08-21T06:28:56;2.07;;;1.70;;
10872;SDS011;34586;53.616;10.032;2022-08-21T06:31:23;2.40;;;1.83;;
10872;SDS011;34586;53.616;10.032;2022-08-21T06:33:50;2.50;;;1.63;;
10872;SDS011;34586;53.616;10.032;2022-08-21T06:36:17;3.60;;;2.13;;
10872;SDS011;34586;53.616;10.032;2022-08-21T06:38:43;4.43;;;2.07;;
10872;SDS011;34586;53.616;10.032;2022-08-21T06:41:09;2.47;;;1.73;;
10872;SDS011;34586;53.616;10.032;2022-08-21T06:43:37;3.57;;;1.80;;
10872;SDS011;34586;53.616;10.032;2022-08-21T06:46:02;3.53;;;1.50;;
10872;SDS011;34586;53.616;10.032;2022-08-21T06:48:28;2.87;;;1.93;;
10872;SDS011;34586;53.616;10.032;2022-08-21T06:50:56;3.67;;;1.87;;
10872;SDS011;34586;53.616;10.032;2022-08-21T06:53:23;3.63;;;1.73;;
10872;SDS011;34586;53.616;10.032;2022-08-21T06:55:49;3.67;;;1.60;;
10872;SDS011;34586;53.616;10.032;2022-08-21T06:58:15;3.47;;;1.70;;
10872;SDS011;34586;53.616;10.032;2022-08-21T07:00:42;3.80;;;1.77;;
10872;SDS011;34586;53.616;10.032;2022-08-21T07:03:17;4.00;;;1.60;;
10872;SDS011;34586;53.616;10.032;2022-08-21T07:05:43;3.73;;;1.70;;
10872;SDS011;34586;53.616;10.032;2022-08-21T07:08:09;5.37;;;1.60;;
10872;SDS011;34586;53.616;10.032;2022-08-21T07:10:34;3.23;;;1.50;;
10872;SDS011;34586;53.616;10.032;2022-08-21T07:13:00;2.93;;;1.40;;
10872;SDS011;34586;53.616;10.032;2022-08-21T07:15:26;3.73;;;1.60;;
10872;SDS011;34586;53.616;10.032;2022-08-21T07:17:52;4.90;;;1.77;;
10872;SDS011;34586;53.616;10.032;2022-08-21T07:20:18;2.00;;;1.40;;
10872;SDS011;34586;53.616;10.032;2022-08-21T07:22:43;3.67;;;1.43;;
10872;SDS011;34586;53.616;10.032;2022-08-21T07:25:09;1.53;;;1.27;;
10872;SDS011;34586;53.616;10.032;2022-08-21T07:27:34;2.23;;;1.30;;
10872;SDS011;34586;53.616;10.032;2022-08-21T07:30:01;2.87;;;1.60;;
10872;SDS011;34586;53.616;10.032;2022-08-21T07:32:26;5.17;;;1.30;;
10872;SDS011;34586;53.616;10.032;2022-08-21T07:34:52;4.03;;;1.70;;
10872;SDS011;34586;53.616;10.032;2022-08-21T07:37:18;4.40;;;1.57;;
10872;SDS011;34586;53.616;10.032;2022-08-21T07:39:43;2.33;;;1.40;;
10872;SDS011;34586;53.616;10.032;2022-08-21T07:42:09;3.20;;;1.40;;
10872;SDS011;34586;53.616;10.032;2022-08-21T07:44:35;2.10;;;1.13;;
10872;SDS011;34586;53.616;10.032;2022-08-21T07:47:01;2.70;;;1.40;;
10872;SDS011;34586;53.616;10.032;2022-08-21T07:49:27;3.03;;;1.50;;
10872;SDS011;34586;53.616;10.032;2022-08-21T07:51:53;5.57;;;1.53;;
10872;SDS011;34586;53.616;10.032;2022-08-21T07:54:18;4.40;;;1.23;;
10872;SDS011;34586;53.616;10.032;2022-08-21T07:56:44;3.57;;;1.20;;
10872;SDS011;34586;53.616;10.032;2022-08-21T07:59:10;3.60;;;1.40;;
10872;SDS011;34586;53.616;10.032;2022-08-21T08:01:36;3.57;;;1.10;;
10872;SDS011;34586;53.616;10.032;2022-08-21T08:04:01;3.80;;;1.30;;
10872;SDS011;34586;53.616;10.032;2022-08-21T08:06:27;4.83;;;1.30;;
10872;SDS011;34586;53.616;10.032;2022-08-21T08:08:53;2.87;;;1.30;;
10872;SDS011;34586;53.616;10.032;2022-08-21T08:11:18;2.87;;;1.07;;
10872;SDS011;34586;53.616;10.032;2022-08-21T08:13:45;1.80;;;1.10;;
10872;SDS011;34586;53.616;10.032;2022-08-21T08:16:12;3.67;;;1.33;;
10872;SDS011;34586;53.616;10.032;2022-08-21T08:18:38;4.07;;;1.37;;
10872;SDS011;34586;53.616;10.032;2022-08-21T08:21:04;2.70;;;1.37;;
10872;SDS011;34586;53.616;10.032;2022-08-21T08:23:30;3.50;;;1.50;;
10872;SDS011;34586;53.616;10.032;2022-08-21T08:25:57;3.43;;;1.20;;
10872;SDS011;34586;53.616;10.032;2022-08-21T08:28:23;4.77;;;1.60;;
10872;SDS011;34586;53.616;10.032;2022-08-21T08:30:49;3.70;;;1.50;;
10872;SDS011;34586;53.616;10.032;2022-08-21T08:33:16;6.20;;;1.57;;
10872;SDS011;34586;53.616;10.032;2022-08-21T08:35:45;5.93;;;1.70;;
10872;SDS011;34586;53.616;10.032;2022-08-21T08:38:13;3.07;;;1.40;;
10872;SDS011;34586;53.616;10.032;2022-08-21T08:40:45;4.53;;;1.67;;
10872;SDS011;34586;53.616;10.032;2022-08-21T08:43:18;5.47;;;1.50;;
10872;SDS011;34586;53.616;10.032;2022-08-21T08:45:45;5.37;;;1.70;;
10872;SDS011;34586;53.616;10.032;2022-08-21T08:48:14;4.67;;;1.80;;
10872;SDS011;34586;53.616;10.032;2022-08-21T08:51:06;3.10;;;1.40;;
10872;SDS011;34586;53.616;10.032;2022-08-21T08:53:47;3.60;;;1.33;;
10872;SDS011;34586;53.616;10.032;2022-08-21T08:56:21;5.03;;;1.67;;
10872;SDS011;34586;53.616;10.032;2022-08-21T08:58:52;3.77;;;1.33;;
10872;SDS011;34586;53.616;10.032;2022-08-21T09:01:21;8.00;;;1.30;;
10872;SDS011;34586;53.616;10.032;2022-08-21T09:03:46;3.53;;;1.47;;
10872;SDS011;34586;53.616;10.032;2022-08-21T09:09:20;3.83;;;1.27;;
10872;SDS011;34586;53.616;10.032;2022-08-21T09:12:08;3.53;;;1.20;;
10872;SDS011;34586;53.616;10.032;2022-08-21T09:17:40;4.77;;;1.20;;
10872;SDS011;34586;53.616;10.032;2022-08-21T09:26:44;6.93;;;1.40;;
10872;SDS011;34586;53.616;10.032;2022-08-21T09:29:09;5.47;;;1.67;;
10872;SDS011;34586;53.616;10.032;2022-08-21T09:31:37;3.87;;;1.47;;
10872;SDS011;34586;53.616;10.032;2022-08-21T09:34:07;3.60;;;1.63;;
10872;SDS011;34586;53.616;10.032;2022-08-21T09:36:47;5.63;;;1.53;;
10872;SDS011;34586;53.616;10.032;2022-08-21T09:39:48;5.53;;;1.37;;
10872;SDS011;34586;53.616;10.032;2022-08-21T09:42:07;6.10;;;1.63;;
10872;SDS011;34586;53.616;10.032;2022-08-21T09:44:35;4.63;;;1.67;;
10872;SDS011;34586;53.616;10.032;2022-08-21T09:47:06;8.53;;;1.90;;
10872;SDS011;34586;53.616;10.032;2022-08-21T09:49:34;4.80;;;1.43;;
10872;SDS011;34586;53.616;10.032;2022-08-21T09:52:03;5.73;;;1.67;;
10872;SDS011;34586;53.616;10.032;2022-08-21T09:54:43;3.87;;;1.43;;
10872;SDS011;34586;53.616;10.032;2022-08-21T10:02:49;5.50;;;1.47;;
10872;SDS011;34586;53.616;10.032;2022-08-21T10:05:16;3.77;;;1.40;;
10872;SDS011;34586;53.616;10.032;2022-08-21T10:07:49;5.60;;;1.70;;
10872;SDS011;34586;53.616;10.032;2022-08-21T10:10:18;5.13;;;1.23;;
10872;SDS011;34586;53.616;10.032;2022-08-21T10:13:13;5.47;;;1.53;;
10872;SDS011;34586;53.616;10.032;2022-08-21T10:16:00;4.33;;;1.53;;
10872;SDS011;34586;53.616;10.032;2022-08-21T10:18:41;4.53;;;1.60;;
10872;SDS011;34586;53.616;10.032;2022-08-21T10:24:12;5.07;;;1.60;;
10872;SDS011;34586;53.616;10.032;2022-08-21T10:27:02;4.20;;;1.47;;
10872;SDS011;34586;53.616;10.032;2022-08-21T10:30:04;5.10;;;1.67;;
10872;SDS011;34586;53.616;10.032;2022-08-21T10:35:10;4.40;;;1.47;;
10872;SDS011;34586;53.616;10.032;2022-08-21T10:40:40;4.53;;;1.47;;
10872;SDS011;34586;53.616;10.032;2022-08-21T10:43:23;4.40;;;1.20;;
10872;SDS011;34586;53.616;10.032;2022-08-21T10:46:25;4.93;;;1.60;;
10872;SDS011;34586;53.616;10.032;2022-08-21T10:49:16;4.10;;;1.43;;
10872;SDS011;34586;53.616;10.032;2022-08-21T10:51:52;4.20;;;1.20;;
10872;SDS011;34586;53.616;10.032;2022-08-21T10:59:49;4.73;;;1.13;;
10872;SDS011;34586;53.616;10.032;2022-08-21T11:02:26;3.00;;;1.13;;
10872;SDS011;34586;53.616;10.032;2022-08-21T11:05:01;4.63;;;1.40;;
10872;SDS011;34586;53.616;10.032;2022-08-21T11:07:33;3.97;;;1.37;;
10872;SDS011;34586;53.616;10.032;2022-08-21T11:15:26;2.47;;;0.93;;
10872;SDS011;34586;53.616;10.032;2022-08-21T11:18:26;2.80;;;1.20;;
10872;SDS011;34586;53.616;10.032;2022-08-21T11:23:57;3.10;;;1.30;;
10872;SDS011;34586;53.616;10.032;2022-08-21T11:26:35;3.53;;;1.10;;
10872;SDS011;34586;53.616;10.032;2022-08-21T11:29:24;2.13;;;1.10;;
10872;SDS011;34586;53.616;10.032;2022-08-21T11:31:59;3.50;;;1.00;;
10872;SDS011;34586;53.616;10.032;2022-08-21T11:34:54;2.90;;;1.10;;
10872;SDS011;34586;53.616;10.032;2022-08-21T11:43:21;3.37;;;1.03;;
10872;SDS011;34586;53.616;10.032;2022-08-21T11:51:47;1.63;;;1.17;;
10872;SDS011;34586;53.616;10.032;2022-08-21T11:56:55;1.93;;;1.00;;
10872;SDS011;34586;53.616;10.032;2022-08-21T11:59:40;2.53;;;1.00;;
10872;SDS011;34586;53.616;10.032;2022-08-21T12:02:16;1.70;;;1.00;;
10872;SDS011;34586;53.616;10.032;2022-08-21T12:04:46;1.60;;;0.97;;
10872;SDS011;34586;53.616;10.032;2022-08-21T12:07:35;1.57;;;1.00;;
10872;SDS011;34586;53.616;10.032;2022-08-21T12:10:05;1.97;;;1.20;;
10872;SDS011;34586;53.616;10.032;2022-08-21T12:12:45;3.60;;;1.00;;
10872;SDS011;34586;53.616;10.032;2022-08-21T12:17:53;0.97;;;0.90;;
10872;SDS011;34586;53.616;10.032;2022-08-21T12:20:26;1.77;;;1.13;;
10872;SDS011;34586;53.616;10.032;2022-08-21T12:23:05;2.20;;;0.93;;
10872;SDS011;34586;53.616;10.032;2022-08-21T12:25:38;4.50;;;1.20;;
10872;SDS011;34586;53.616;10.032;2022-08-21T12:28:08;2.90;;;1.17;;
10872;SDS011;34586;53.616;10.032;2022-08-21T12:30:40;6.20;;;1.20;;
10872;SDS011;34586;53.616;10.032;2022-08-21T12:36:35;2.30;;;1.10;;
10872;SDS011;34586;53.616;10.032;2022-08-21T12:39:03;3.37;;;1.10;;
10872;SDS011;34586;53.616;10.032;2022-08-21T12:41:44;1.83;;;1.07;;
10872;SDS011;34586;53.616;10.032;2022-08-21T12:44:26;3.50;;;0.93;;
10872;SDS011;34586;53.616;10.032;2022-08-21T12:47:13;1.67;;;0.70;;
10872;SDS011;34586;53.616;10.032;2022-08-21T12:49:59;4.13;;;1.13;;
10872;SDS011;34586;53.616;10.032;2022-08-21T12:52:33;1.60;;;1.10;;
10872;SDS011;34586;53.616;10.032;2022-08-21T12:55:01;1.63;;;0.90;;
10872;SDS011;34586;53.616;10.032;2022-08-21T12:57:28;3.87;;;1.00;;
10872;SDS011;34586;53.616;10.032;2022-08-21T12:59:58;2.33;;;1.10;;
10872;SDS011;34586;53.616;10.032;2022-08-21T13:02:47;1.10;;;0.90;;
10872;SDS011;34586;53.616;10.032;2022-08-21T13:05:14;1.43;;;0.87;;
10872;SDS011;34586;53.616;10.032;2022-08-21T13:07:48;2.43;;;1.07;;
10872;SDS011;34586;53.616;10.032;2022-08-21T13:10:21;2.03;;;0.87;;
10872;SDS011;34586;53.616;10.032;2022-08-21T13:12:50;1.73;;;0.90;;
10872;SDS011;34586;53.616;10.032;2022-08-21T13:15:25;1.43;;;0.83;;
10872;SDS011;34586;53.616;10.032;2022-08-21T13:17:53;2.40;;;0.90;;
10872;SDS011;34586;53.616;10.032;2022-08-21T13:20:23;1.23;;;0.80;;
10872;SDS011;34586;53.616;10.032;2022-08-21T13:22:52;1.20;;;0.80;;
10872;SDS011;34586;53.616;10.032;2022-08-21T13:25:19;1.77;;;0.80;;
10872;SDS011;34586;53.616;10.032;2022-08-21T13:27:56;2.60;;;0.80;;
10872;SDS011;34586;53.616;10.032;2022-08-21T13:30:25;3.53;;;0.90;;
10872;SDS011;34586;53.616;10.032;2022-08-21T13:32:52;0.97;;;0.83;;
10872;SDS011;34586;53.616;10.032;2022-08-21T13:35:31;2.97;;;1.10;;
10872;SDS011;34586;53.616;10.032;2022-08-21T13:38:10;1.00;;;0.77;;
10872;SDS011;34586;53.616;10.032;2022-08-21T13:40:40;1.80;;;0.70;;
10872;SDS011;34586;53.616;10.032;2022-08-21T13:43:12;2.03;;;0.67;;
10872;SDS011;34586;53.616;10.032;2022-08-21T13:45:43;1.70;;;0.77;;
10872;SDS011;34586;53.616;10.032;2022-08-21T13:48:12;1.77;;;0.70;;
10872;SDS011;34586;53.616;10.032;2022-08-21T13:50:39;1.97;;;0.73;;
10872;SDS011;34586;53.616;10.032;2022-08-21T13:53:18;1.07;;;0.70;;
10872;SDS011;34586;53.616;10.032;2022-08-21T13:55:45;0.93;;;0.70;;
10872;SDS011;34586;53.616;10.032;2022-08-21T13:58:11;2.03;;;0.70;;
10872;SDS011;34586;53.616;10.032;2022-08-21T14:00:44;0.70;;;0.60;;
10872;SDS011;34586;53.616;10.032;2022-08-21T14:03:15;0.80;;;0.60;;
10872;SDS011;34586;53.616;10.032;2022-08-21T14:05:52;1.40;;;0.70;;
10872;SDS011;34586;53.616;10.032;2022-08-21T14:10:59;2.03;;;0.63;;
10872;SDS011;34586;53.616;10.032;2022-08-21T14:16:02;1.57;;;0.70;;
10872;SDS011;34586;53.616;10.032;2022-08-21T14:18:42;2.33;;;0.83;;
10872;SDS011;34586;53.616;10.032;2022-08-21T14:21:27;2.50;;;0.73;;
10872;SDS011;34586;53.616;10.032;2022-08-21T14:26:45;1.33;;;0.70;;
10872;SDS011;34586;53.616;10.032;2022-08-21T14:29:15;1.20;;;0.70;;
10872;SDS011;34586;53.616;10.032;2022-08-21T14:31:43;1.10;;;0.70;;
10872;SDS011;34586;53.616;10.032;2022-08-21T14:34:14;1.30;;;0.80;;
10872;SDS011;34586;53.616;10.032;2022-08-21T14:36:41;1.43;;;0.70;;
10872;SDS011;34586;53.616;10.032;2022-08-21T14:39:08;1.80;;;0.77;;
10872;SDS011;34586;53.616;10.032;2022-08-21T14:41:33;4.73;;;0.93;;
10872;SDS011;34586;53.616;10.032;2022-08-21T14:44:01;2.10;;;0.67;;
10872;SDS011;34586;53.616;10.032;2022-08-21T14:46:28;1.63;;;0.63;;
10872;SDS011;34586;53.616;10.032;2022-08-21T14:48:55;1.63;;;0.77;;
10872;SDS011;34586;53.616;10.032;2022-08-21T14:51:21;2.63;;;0.90;;
10872;SDS011;34586;53.616;10.032;2022-08-21T14:53:47;2.20;;;1.00;;
10872;SDS011;34586;53.616;10.032;2022-08-21T14:56:13;1.50;;;0.90;;
10872;SDS011;34586;53.616;10.032;2022-08-21T14:58:41;1.07;;;0.70;;
10872;SDS011;34586;53.616;10.032;2022-08-21T15:01:10;3.60;;;0.90;;
10872;SDS011;34586;53.616;10.032;2022-08-21T15:03:37;3.13;;;0.90;;
10872;SDS011;34586;53.616;10.032;2022-08-21T15:06:04;1.30;;;0.60;;
10872;SDS011;34586;53.616;10.032;2022-08-21T15:08:31;2.30;;;0.67;;
10872;SDS011;34586;53.616;10.032;2022-08-21T15:10:57;4.10;;;0.90;;
10872;SDS011;34586;53.616;10.032;2022-08-21T15:13:25;3.50;;;0.90;;
10872;SDS011;34586;53.616;10.032;2022-08-21T15:15:51;2.80;;;0.80;;
10872;SDS011;34586;53.616;10.032;2022-08-21T15:18:18;1.63;;;0.80;;
10872;SDS011;34586;53.616;10.032;2022-08-21T15:20:45;1.10;;;0.60;;
10872;SDS011;34586;53.616;10.032;2022-08-21T15:23:10;1.77;;;0.77;;
10872;SDS011;34586;53.616;10.032;2022-08-21T15:25:36;0.87;;;0.50;;
10872;SDS011;34586;53.616;10.032;2022-08-21T15:28:06;3.20;;;0.70;;
10872;SDS011;34586;53.616;10.032;2022-08-21T15:30:32;1.83;;;0.90;;
10872;SDS011;34586;53.616;10.032;2022-08-21T15:32:58;1.70;;;0.77;;
10872;SDS011;34586;53.616;10.032;2022-08-21T15:35:24;1.57;;;0.70;;
10872;SDS011;34586;53.616;10.032;2022-08-21T15:37:50;1.67;;;0.60;;
10872;SDS011;34586;53.616;10.032;2022-08-21T15:40:16;1.57;;;0.80;;
10872;SDS011;34586;53.616;10.032;2022-08-21T15:42:42;1.80;;;0.60;;
10872;SDS011;34586;53.616;10.032;2022-08-21T15:45:08;1.67;;;0.90;;
10872;SDS011;34586;53.616;10.032;2022-08-21T15:47:36;3.27;;;0.90;;
10872;SDS011;34586;53.616;10.032;2022-08-21T15:50:04;1.37;;;0.90;;
10872;SDS011;34586;53.616;10.032;2022-08-21T15:52:33;2.57;;;0.70;;
10872;SDS011;34586;53.616;10.032;2022-08-21T15:54:59;1.93;;;0.90;;
10872;SDS011;34586;53.616;10.032;2022-08-21T15:57:25;1.90;;;0.80;;